Time;durP1;ratioP1;P1;durP2;ratioP2;P2;SDS_P1;SDS_P2;PMS_P1;PMS_P2;Temp;Humidity;BMP_temperature;BMP_pressure;BME280_temperature;BME280_humidity;BME280_pressure;Samples;Min_cycle;Max_cycle;Signal;HPM_P1;HPM_P2
2023/11/13 00:02:15;;;;;;;0.93;0.90;;;;;;;;;;5067103;28;20028;-84
2023/11/13 00:04:41;;;;;;;0.73;0.63;;;;;;;;;;5073155;28;20025;-84
2023/11/13 00:07:07;;;;;;;0.93;0.93;;;;;;;;;;5057312;28;20021;-84
2023/11/13 00:09:33;;;;;;;1.05;0.98;;;;;;;;;;5060132;28;20032;-83
2023/11/13 00:11:59;;;;;;;0.93;0.90;;;;;;;;;;5065751;28;20653;-82
2023/11/13 00:14:25;;;;;;;1.20;1.10;;;;;;;;;;5075192;28;20078;-83
2023/11/13 00:16:52;;;;;;;1.33;1.20;;;;;;;;;;5068671;28;20028;-83
2023/11/13 00:19:18;;;;;;;1.45;1.02;;;;;;;;;;5066725;28;20074;-83
2023/11/13 00:21:44;;;;;;;1.55;1.20;;;;;;;;;;5068483;28;20096;-83
2023/11/13 00:24:12;;;;;;;2.40;1.13;;;;;;;;;;5066339;28;20090;-82
2023/11/13 00:26:38;;;;;;;1.88;1.40;;;;;;;;;;5055895;28;20024;-83
2023/11/13 00:29:05;;;;;;;1.95;1.30;;;;;;;;;;5064902;28;20024;-84
2023/11/13 00:31:31;;;;;;;1.52;1.40;;;;;;;;;;5063596;28;20074;-85
2023/11/13 00:33:57;;;;;;;2.58;2.28;;;;;;;;;;5062126;28;20036;-83
2023/11/13 00:36:23;;;;;;;2.45;2.25;;;;;;;;;;5065786;28;20028;-84
2023/11/13 00:38:49;;;;;;;2.80;2.55;;;;;;;;;;5066379;28;20475;-82
2023/11/13 00:41:17;;;;;;;3.35;3.03;;;;;;;;;;5072483;28;20055;-83
2023/11/13 00:43:44;;;;;;;2.40;2.20;;;;;;;;;;5084236;28;20798;-82
2023/11/13 00:46:10;;;;;;;3.97;3.47;;;;;;;;;;5080196;28;20028;-82
2023/11/13 00:48:37;;;;;;;3.30;3.00;;;;;;;;;;5078934;28;20063;-84
2023/11/13 00:51:04;;;;;;;3.17;2.88;;;;;;;;;;5070700;28;20017;-83
2023/11/13 00:53:39;;;;;;;3.05;2.55;;;;;;;;;;5086353;28;20025;-84
2023/11/13 00:56:06;;;;;;;2.47;2.28;;;;;;;;;;5088903;28;20017;-84
2023/11/13 00:58:34;;;;;;;2.97;2.67;;;;;;;;;;5078826;28;20029;-82
2023/11/13 01:01:01;;;;;;;2.60;2.40;;;;;;;;;;5069189;28;20025;-82
2023/11/13 01:03:27;;;;;;;2.25;2.08;;;;;;;;;;5077585;28;20025;-85
2023/11/13 01:05:53;;;;;;;2.10;1.90;;;;;;;;;;5079800;28;20064;-83
2023/11/13 01:08:19;;;;;;;1.77;1.67;;;;;;;;;;5087982;28;20017;-84
2023/11/13 01:10:46;;;;;;;1.90;1.75;;;;;;;;;;5080916;28;20038;-83
2023/11/13 01:13:12;;;;;;;1.65;1.55;;;;;;;;;;5082037;28;20070;-84
2023/11/13 01:15:38;;;;;;;2.03;1.83;;;;;;;;;;5082823;28;20028;-83
2023/11/13 01:18:04;;;;;;;1.70;1.60;;;;;;;;;;5082679;28;20084;-84
2023/11/13 01:20:31;;;;;;;1.77;1.67;;;;;;;;;;5069264;28;20024;-83
2023/11/13 01:22:57;;;;;;;1.73;1.50;;;;;;;;;;5070295;28;20028;-82
2023/11/13 01:25:23;;;;;;;1.73;1.60;;;;;;;;;;5072273;28;20394;-83
2023/11/13 01:27:49;;;;;;;1.50;1.40;;;;;;;;;;5081194;28;20021;-83
2023/11/13 01:30:15;;;;;;;1.65;1.52;;;;;;;;;;5071722;28;20021;-83
2023/11/13 01:32:41;;;;;;;1.23;1.13;;;;;;;;;;5073138;28;20043;-84
2023/11/13 01:35:07;;;;;;;1.70;1.60;;;;;;;;;;5071058;28;20032;-82
2023/11/13 01:37:33;;;;;;;1.80;1.70;;;;;;;;;;5065604;28;20036;-82
2023/11/13 01:39:59;;;;;;;2.20;2.00;;;;;;;;;;5071509;28;20119;-82
2023/11/13 01:42:25;;;;;;;1.60;1.50;;;;;;;;;;5064039;28;20028;-83
2023/11/13 01:44:51;;;;;;;1.70;1.60;;;;;;;;;;5073458;28;20039;-82
2023/11/13 01:47:18;;;;;;;2.28;2.08;;;;;;;;;;5076041;28;20037;-83
2023/11/13 01:49:44;;;;;;;1.83;1.73;;;;;;;;;;5080825;28;20098;-83
2023/11/13 01:52:11;;;;;;;2.00;1.90;;;;;;;;;;5079894;28;20020;-82
2023/11/13 01:54:38;;;;;;;1.50;1.40;;;;;;;;;;5066018;28;20040;-83
2023/11/13 01:57:07;;;;;;;2.15;1.90;;;;;;;;;;5069598;28;20029;-83
2023/11/13 01:59:34;;;;;;;1.30;1.20;;;;;;;;;;5074788;28;20036;-85
2023/11/13 02:02:02;;;;;;;1.38;1.10;;;;;;;;;;5060457;28;20033;-82
2023/11/13 02:04:28;;;;;;;1.63;1.48;;;;;;;;;;5059393;28;20029;-82
2023/11/13 02:06:54;;;;;;;1.60;1.50;;;;;;;;;;5075638;28;20024;-82
2023/11/13 02:09:20;;;;;;;1.17;1.08;;;;;;;;;;5080115;28;20017;-82
2023/11/13 02:11:47;;;;;;;1.20;1.10;;;;;;;;;;5073515;28;20018;-82
2023/11/13 02:14:14;;;;;;;1.33;1.20;;;;;;;;;;5070826;28;20630;-82
2023/11/13 02:16:43;;;;;;;1.73;1.55;;;;;;;;;;5066976;28;20029;-84
2023/11/13 02:19:14;;;;;;;1.52;1.42;;;;;;;;;;5058102;28;20506;-82
2023/11/13 02:21:40;;;;;;;1.00;1.00;;;;;;;;;;5064877;28;20025;-83
2023/11/13 02:24:07;;;;;;;1.00;1.00;;;;;;;;;;5079287;28;20059;-82
2023/11/13 02:26:33;;;;;;;1.00;1.00;;;;;;;;;;5074605;28;20017;-82
2023/11/13 02:28:59;;;;;;;1.20;1.10;;;;;;;;;;5058713;28;20104;-82
2023/11/13 02:31:25;;;;;;;0.85;0.82;;;;;;;;;;5079240;28;20070;-82
2023/11/13 02:33:51;;;;;;;0.90;0.90;;;;;;;;;;5073846;28;20078;-82
2023/11/13 02:36:18;;;;;;;1.20;0.98;;;;;;;;;;5071383;28;20036;-82
2023/11/13 02:38:44;;;;;;;1.20;1.10;;;;;;;;;;5071357;28;20039;-81
2023/11/13 02:41:10;;;;;;;1.27;1.17;;;;;;;;;;5062092;28;20475;-83
2023/11/13 02:43:36;;;;;;;1.42;1.33;;;;;;;;;;5070703;28;20016;-81
2023/11/13 02:46:02;;;;;;;3.95;3.10;;;;;;;;;;5076704;28;20051;-80
2023/11/13 02:48:28;;;;;;;3.80;3.30;;;;;;;;;;5074008;28;20387;-81
2023/11/13 02:50:55;;;;;;;4.25;3.45;;;;;;;;;;5056899;28;20017;-80
2023/11/13 02:53:21;;;;;;;3.40;3.10;;;;;;;;;;5073592;28;20518;-80
2023/11/13 02:55:49;;;;;;;3.55;3.10;;;;;;;;;;5068957;28;20105;-80
2023/11/13 02:58:16;;;;;;;3.53;3.03;;;;;;;;;;5094952;28;20035;-80
2023/11/13 03:00:42;;;;;;;3.00;2.70;;;;;;;;;;5074456;28;20024;-81
2023/11/13 03:03:08;;;;;;;2.63;2.40;;;;;;;;;;5060945;28;20029;-81
2023/11/13 03:05:34;;;;;;;2.55;2.35;;;;;;;;;;5068152;28;20024;-82
2023/11/13 03:08:00;;;;;;;2.20;2.00;;;;;;;;;;5071762;28;20029;-80
2023/11/13 03:10:26;;;;;;;2.63;2.38;;;;;;;;;;5075308;28;20021;-81
2023/11/13 03:12:52;;;;;;;3.60;2.35;;;;;;;;;;5092535;28;20017;-81
2023/11/13 03:15:18;;;;;;;2.38;2.17;;;;;;;;;;5079908;28;20059;-81
2023/11/13 03:17:44;;;;;;;2.60;2.40;;;;;;;;;;5076886;28;20526;-80
2023/11/13 03:20:12;;;;;;;1.70;1.60;;;;;;;;;;5068176;28;20025;-81
2023/11/13 03:22:38;;;;;;;1.85;1.67;;;;;;;;;;5075950;28;20012;-81
2023/11/13 03:25:04;;;;;;;2.13;1.92;;;;;;;;;;5097375;28;20025;-80
2023/11/13 03:27:31;;;;;;;2.05;1.85;;;;;;;;;;5074105;28;20035;-79
2023/11/13 03:29:58;;;;;;;2.35;1.60;;;;;;;;;;5069150;28;20031;-80
2023/11/13 03:32:24;;;;;;;2.00;1.70;;;;;;;;;;5075723;28;20066;-80
2023/11/13 03:34:51;;;;;;;1.48;1.38;;;;;;;;;;5075797;28;20046;-79
2023/11/13 03:37:17;;;;;;;1.58;1.48;;;;;;;;;;5063119;28;20021;-80
2023/11/13 03:39:43;;;;;;;1.40;1.30;;;;;;;;;;5068900;28;20081;-80
2023/11/13 03:42:09;;;;;;;1.08;1.08;;;;;;;;;;5069022;28;20478;-81
2023/11/13 03:44:35;;;;;;;1.00;0.90;;;;;;;;;;5072354;28;20025;-81
2023/11/13 03:47:02;;;;;;;0.70;0.70;;;;;;;;;;5065264;28;20041;-80
2023/11/13 03:49:28;;;;;;;0.80;0.80;;;;;;;;;;5072439;28;20029;-80
2023/11/13 03:51:54;;;;;;;0.95;0.77;;;;;;;;;;5071317;28;20025;-81
2023/11/13 03:54:20;;;;;;;0.60;0.60;;;;;;;;;;5075977;28;20123;-81
2023/11/13 03:56:46;;;;;;;0.60;0.60;;;;;;;;;;5071531;28;20025;-81
2023/11/13 03:59:13;;;;;;;0.50;0.50;;;;;;;;;;5067897;28;20055;-81
2023/11/13 04:01:39;;;;;;;0.52;0.52;;;;;;;;;;5076650;28;20005;-81
2023/11/13 04:04:05;;;;;;;0.43;0.40;;;;;;;;;;5083647;28;20554;-81
2023/11/13 04:06:31;;;;;;;0.63;0.52;;;;;;;;;;5059497;28;20521;-80
2023/11/13 04:08:57;;;;;;;0.40;0.40;;;;;;;;;;5080330;28;20028;-82
2023/11/13 04:11:23;;;;;;;0.40;0.40;;;;;;;;;;5072405;28;20079;-81
2023/11/13 04:13:50;;;;;;;0.30;0.30;;;;;;;;;;5085243;28;20069;-82
2023/11/13 04:16:16;;;;;;;0.40;0.40;;;;;;;;;;5072431;28;20044;-82
2023/11/13 04:18:42;;;;;;;0.40;0.40;;;;;;;;;;5076316;28;20021;-82
2023/11/13 04:21:09;;;;;;;0.50;0.50;;;;;;;;;;5060977;28;20078;-81
2023/11/13 04:23:35;;;;;;;0.40;0.40;;;;;;;;;;5060839;28;20051;-82
2023/11/13 04:26:02;;;;;;;0.40;0.40;;;;;;;;;;5069801;28;20024;-81
2023/11/13 04:28:32;;;;;;;0.30;0.30;;;;;;;;;;5071103;28;20021;-81
2023/11/13 04:31:02;;;;;;;0.30;0.30;;;;;;;;;;5072032;28;20048;-83
2023/11/13 04:33:28;;;;;;;0.40;0.40;;;;;;;;;;5087352;28;20028;-83
2023/11/13 04:35:54;;;;;;;0.38;0.30;;;;;;;;;;5074905;28;20542;-82
2023/11/13 04:38:20;;;;;;;0.30;0.30;;;;;;;;;;5081560;28;20020;-81
2023/11/13 04:40:47;;;;;;;0.20;0.20;;;;;;;;;;5071441;28;20028;-82
2023/11/13 04:43:13;;;;;;;0.20;0.20;;;;;;;;;;5078822;28;20028;-83
2023/11/13 04:45:39;;;;;;;0.20;0.20;;;;;;;;;;5072329;28;20119;-83
2023/11/13 04:48:05;;;;;;;0.20;0.20;;;;;;;;;;5081219;28;20118;-84
2023/11/13 04:50:32;;;;;;;0.13;0.10;;;;;;;;;;5060435;28;20028;-78
2023/11/13 04:52:57;;;;;;;0.10;0.10;;;;;;;;;;5074859;28;20094;-80
2023/11/13 04:55:24;;;;;;;0.17;0.10;;;;;;;;;;5060299;28;20033;-80
2023/11/13 04:57:50;;;;;;;0.03;0.03;;;;;;;;;;5065361;28;20024;-80
2023/11/13 05:00:16;;;;;;;0.20;0.20;;;;;;;;;;5079392;28;20028;-81
2023/11/13 05:02:42;;;;;;;0.10;0.10;;;;;;;;;;5064905;28;20159;-81
2023/11/13 05:05:10;;;;;;;0.32;0.32;;;;;;;;;;5064509;28;20231;-82
2023/11/13 05:07:36;;;;;;;0.40;0.40;;;;;;;;;;5072068;28;20486;-81
2023/11/13 05:10:03;;;;;;;0.50;0.50;;;;;;;;;;5087299;28;20020;-83
2023/11/13 05:12:31;;;;;;;1.05;0.43;;;;;;;;;;5073437;28;20051;-82
2023/11/13 05:14:57;;;;;;;2.17;0.80;;;;;;;;;;5079007;28;20025;-84
2023/11/13 05:17:23;;;;;;;2.08;0.70;;;;;;;;;;5074076;28;20021;-84
2023/11/13 05:19:49;;;;;;;1.52;0.82;;;;;;;;;;5069637;28;20035;-83
2023/11/13 05:22:15;;;;;;;1.90;0.80;;;;;;;;;;5067120;28;20391;-82
2023/11/13 05:24:41;;;;;;;0.68;0.50;;;;;;;;;;5068935;28;20025;-83
2023/11/13 05:27:07;;;;;;;2.83;1.10;;;;;;;;;;5067961;28;20123;-82
2023/11/13 05:29:33;;;;;;;1.80;0.75;;;;;;;;;;5072439;28;20016;-83
2023/11/13 05:31:59;;;;;;;3.80;1.08;;;;;;;;;;5075472;28;20036;-83
2023/11/13 05:34:26;;;;;;;5.32;1.17;;;;;;;;;;5078145;28;20024;-83
2023/11/13 05:36:52;;;;;;;3.35;1.00;;;;;;;;;;5067063;28;20418;-80
2023/11/13 05:39:18;;;;;;;5.15;0.93;;;;;;;;;;5071202;28;20066;-82
2023/11/13 05:41:44;;;;;;;1.63;0.68;;;;;;;;;;5073070;28;20119;-82
2023/11/13 05:44:10;;;;;;;4.85;1.30;;;;;;;;;;5073704;28;20070;-81
2023/11/13 05:46:38;;;;;;;5.07;1.23;;;;;;;;;;5072576;28;20033;-81
2023/11/13 05:49:05;;;;;;;4.15;1.20;;;;;;;;;;5073627;28;20414;-81
2023/11/13 05:51:31;;;;;;;2.42;1.05;;;;;;;;;;5078949;28;20021;-81
2023/11/13 05:53:57;;;;;;;5.57;1.23;;;;;;;;;;5081152;28;20028;-81
2023/11/13 05:56:23;;;;;;;6.13;1.17;;;;;;;;;;5085681;28;20024;-82
2023/11/13 05:58:50;;;;;;;5.75;1.25;;;;;;;;;;5071254;28;20037;-81
2023/11/13 06:01:19;;;;;;;4.35;0.90;;;;;;;;;;5073355;28;20021;-81
2023/11/13 06:03:46;;;;;;;4.53;1.25;;;;;;;;;;5077714;28;20033;-84
2023/11/13 06:06:13;;;;;;;1.50;0.80;;;;;;;;;;5086529;28;20028;-82
2023/11/13 06:08:40;;;;;;;2.95;0.90;;;;;;;;;;5068597;28;20024;-81
2023/11/13 06:11:06;;;;;;;3.25;1.10;;;;;;;;;;5075433;28;20100;-81
2023/11/13 06:13:35;;;;;;;5.20;0.85;;;;;;;;;;5074360;28;20024;-81
2023/11/13 06:16:02;;;;;;;3.55;1.05;;;;;;;;;;5073046;28;20021;-80
2023/11/13 06:18:28;;;;;;;4.55;1.02;;;;;;;;;;5061193;28;20029;-82
2023/11/13 06:20:55;;;;;;;6.93;1.25;;;;;;;;;;5083140;28;20021;-82
2023/11/13 06:23:23;;;;;;;6.32;1.20;;;;;;;;;;5078590;28;20021;-83
2023/11/13 06:25:49;;;;;;;6.13;1.30;;;;;;;;;;5086970;28;20494;-84
2023/11/13 06:28:15;;;;;;;5.63;1.00;;;;;;;;;;5085379;28;20077;-83
2023/11/13 06:30:45;;;;;;;4.40;1.35;;;;;;;;;;5085689;28;20024;-83
2023/11/13 06:33:11;;;;;;;3.88;1.10;;;;;;;;;;5081607;28;20047;-84
2023/11/13 06:35:37;;;;;;;5.20;1.10;;;;;;;;;;5085926;28;20077;-83
2023/11/13 06:38:04;;;;;;;3.28;1.10;;;;;;;;;;5083208;28;20025;-84
2023/11/13 06:40:30;;;;;;;3.92;1.10;;;;;;;;;;5080121;28;20124;-83
2023/11/13 06:42:56;;;;;;;3.45;0.75;;;;;;;;;;5081821;28;20024;-85
2023/11/13 06:45:22;;;;;;;4.22;1.13;;;;;;;;;;5076857;28;20021;-85
2023/11/13 06:47:50;;;;;;;4.72;1.00;;;;;;;;;;5079475;28;20029;-84
2023/11/13 06:50:17;;;;;;;1.73;0.70;;;;;;;;;;5067275;28;20052;-84
2023/11/13 06:52:43;;;;;;;4.28;0.93;;;;;;;;;;5081355;28;20025;-83
2023/11/13 06:55:13;;;;;;;4.70;1.30;;;;;;;;;;5076773;28;20437;-84
2023/11/13 06:57:40;;;;;;;3.45;0.77;;;;;;;;;;5072574;28;20032;-82
2023/11/13 07:00:08;;;;;;;2.63;0.93;;;;;;;;;;5089618;28;20048;-81
2023/11/13 07:02:35;;;;;;;2.97;0.85;;;;;;;;;;5088974;28;20035;-82
2023/11/13 07:05:01;;;;;;;2.83;0.75;;;;;;;;;;5064672;28;20100;-82
2023/11/13 07:07:36;;;;;;;1.40;0.52;;;;;;;;;;5086360;28;20505;-81
2023/11/13 07:10:04;;;;;;;2.70;0.80;;;;;;;;;;5079589;28;20494;-82
2023/11/13 07:12:31;;;;;;;1.88;0.60;;;;;;;;;;5081849;28;20024;-81
2023/11/13 07:14:57;;;;;;;2.95;0.70;;;;;;;;;;5079646;28;20024;-82
2023/11/13 07:17:24;;;;;;;2.33;0.60;;;;;;;;;;5076305;28;20047;-82
2023/11/13 07:19:50;;;;;;;1.27;0.60;;;;;;;;;;5071118;28;20029;-82
2023/11/13 07:22:17;;;;;;;2.30;0.95;;;;;;;;;;5070650;28;20029;-83
2023/11/13 07:24:43;;;;;;;1.40;0.60;;;;;;;;;;5070005;28;20040;-82
2023/11/13 07:27:12;;;;;;;1.25;0.68;;;;;;;;;;5067453;28;20021;-82
2023/11/13 07:29:38;;;;;;;1.00;0.43;;;;;;;;;;5079750;28;20020;-84
2023/11/13 07:32:05;;;;;;;3.75;0.77;;;;;;;;;;5065628;28;20456;-83
2023/11/13 07:34:32;;;;;;;1.15;0.60;;;;;;;;;;5071291;28;20017;-82
2023/11/13 07:36:58;;;;;;;1.50;0.70;;;;;;;;;;5064422;28;20395;-81
2023/11/13 07:39:27;;;;;;;2.10;0.75;;;;;;;;;;5063544;28;20098;-82
2023/11/13 07:41:55;;;;;;;2.58;0.63;;;;;;;;;;5075408;28;20466;-83
2023/11/13 07:44:21;;;;;;;1.05;0.65;;;;;;;;;;5075858;28;20430;-82
2023/11/13 07:46:47;;;;;;;2.88;0.60;;;;;;;;;;5075629;28;20020;-82
2023/11/13 07:49:14;;;;;;;1.10;0.50;;;;;;;;;;5076073;28;20029;-83
2023/11/13 07:51:43;;;;;;;0.77;0.50;;;;;;;;;;5090077;28;20088;-83
2023/11/13 07:54:09;;;;;;;2.33;0.85;;;;;;;;;;5071506;28;20013;-82
2023/11/13 07:56:35;;;;;;;3.13;0.60;;;;;;;;;;5078802;28;20024;-82
2023/11/13 07:59:07;;;;;;;7.00;0.70;;;;;;;;;;5068951;28;20055;-83
2023/11/13 08:01:33;;;;;;;1.63;0.60;;;;;;;;;;5066664;28;20048;-82
2023/11/13 08:03:59;;;;;;;2.60;0.52;;;;;;;;;;5083284;28;20625;-82
2023/11/13 08:06:26;;;;;;;0.68;0.57;;;;;;;;;;5068027;28;20142;-82
2023/11/13 08:08:52;;;;;;;1.00;0.40;;;;;;;;;;5084128;28;20491;-81
2023/11/13 08:11:18;;;;;;;0.88;0.40;;;;;;;;;;5072635;28;20021;-82
2023/11/13 08:13:45;;;;;;;1.02;0.40;;;;;;;;;;5080160;28;20103;-80
2023/11/13 08:16:11;;;;;;;0.75;0.38;;;;;;;;;;5065428;28;20024;-82
2023/11/13 08:18:39;;;;;;;1.30;0.43;;;;;;;;;;5063809;28;20024;-82
2023/11/13 08:21:06;;;;;;;0.70;0.50;;;;;;;;;;5066434;28;20021;-82
2023/11/13 08:23:32;;;;;;;1.35;0.57;;;;;;;;;;5063250;28;20024;-82
2023/11/13 08:26:00;;;;;;;2.17;0.70;;;;;;;;;;5073801;28;20468;-82
2023/11/13 08:28:26;;;;;;;0.47;0.32;;;;;;;;;;5073971;28;20036;-81
2023/11/13 08:30:52;;;;;;;1.17;0.55;;;;;;;;;;5072741;28;20012;-81
2023/11/13 08:33:18;;;;;;;1.27;0.45;;;;;;;;;;5073389;28;20025;-82
2023/11/13 08:35:45;;;;;;;1.02;0.70;;;;;;;;;;5080471;28;20059;-81
2023/11/13 08:38:11;;;;;;;1.40;0.40;;;;;;;;;;5073932;28;20084;-82
2023/11/13 08:40:37;;;;;;;0.80;0.50;;;;;;;;;;5084434;28;20050;-81
2023/11/13 08:43:10;;;;;;;0.45;0.45;;;;;;;;;;5083272;28;20120;-82
2023/11/13 08:45:37;;;;;;;1.10;0.50;;;;;;;;;;5078423;28;20379;-81
2023/11/13 08:48:03;;;;;;;1.50;0.60;;;;;;;;;;5067231;28;20029;-81
2023/11/13 08:50:30;;;;;;;0.40;0.40;;;;;;;;;;5063196;28;20356;-82
2023/11/13 08:52:59;;;;;;;0.80;0.35;;;;;;;;;;5080188;28;20439;-81
2023/11/13 08:55:26;;;;;;;0.65;0.40;;;;;;;;;;5080902;28;20105;-82
2023/11/13 08:57:52;;;;;;;1.00;0.50;;;;;;;;;;5074093;28;20052;-80
2023/11/13 09:00:21;;;;;;;0.90;0.52;;;;;;;;;;5068179;28;20016;-77
2023/11/13 09:02:53;;;;;;;1.20;0.40;;;;;;;;;;5077402;28;20033;-78
2023/11/13 09:05:20;;;;;;;0.55;0.30;;;;;;;;;;5075335;28;20076;-77
2023/11/13 09:07:46;;;;;;;0.52;0.52;;;;;;;;;;5069765;28;20021;-77
2023/11/13 09:10:12;;;;;;;1.52;0.40;;;;;;;;;;5064184;28;20024;-77
2023/11/13 09:12:39;;;;;;;1.08;0.50;;;;;;;;;;5076050;28;20046;-78
2023/11/13 09:15:13;;;;;;;0.98;0.75;;;;;;;;;;5062661;28;20104;-78
2023/11/13 09:17:43;;;;;;;0.52;0.32;;;;;;;;;;5068839;28;20016;-76
2023/11/13 09:20:14;;;;;;;1.95;0.40;;;;;;;;;;5066731;28;20017;-78
2023/11/13 09:22:40;;;;;;;1.95;0.88;;;;;;;;;;5068218;28;20039;-77
2023/11/13 09:25:07;;;;;;;0.57;0.52;;;;;;;;;;5069069;28;20027;-77
2023/11/13 09:27:33;;;;;;;0.68;0.30;;;;;;;;;;5070639;28;20426;-79
2023/11/13 09:29:59;;;;;;;1.27;0.55;;;;;;;;;;5079735;28;20080;-78
2023/11/13 09:32:25;;;;;;;0.20;0.20;;;;;;;;;;5097492;28;20068;-79
2023/11/13 09:34:54;;;;;;;0.25;0.20;;;;;;;;;;5090323;28;20046;-78
2023/11/13 09:37:21;;;;;;;0.50;0.35;;;;;;;;;;5090658;28;20101;-79
2023/11/13 09:39:51;;;;;;;0.35;0.35;;;;;;;;;;5098664;28;20191;-79
2023/11/13 09:42:25;;;;;;;0.73;0.50;;;;;;;;;;5100019;28;20044;-78
2023/11/13 09:44:56;;;;;;;0.75;0.32;;;;;;;;;;5099288;28;20096;-79
2023/11/13 09:47:23;;;;;;;0.45;0.45;;;;;;;;;;5099473;28;20037;-79
2023/11/13 09:49:56;;;;;;;0.30;0.30;;;;;;;;;;5085918;28;20025;-79
2023/11/13 09:52:24;;;;;;;0.40;0.40;;;;;;;;;;5069940;28;20071;-80
2023/11/13 09:54:51;;;;;;;0.40;0.40;;;;;;;;;;5088384;28;20031;-82
2023/11/13 09:57:18;;;;;;;0.40;0.40;;;;;;;;;;5077447;28;20040;-81
2023/11/13 09:59:48;;;;;;;0.45;0.45;;;;;;;;;;5087423;28;20104;-82
2023/11/13 10:02:16;;;;;;;0.30;0.30;;;;;;;;;;5094407;28;20013;-80
2023/11/13 10:04:42;;;;;;;0.20;0.20;;;;;;;;;;5086606;28;20036;-80
2023/11/13 10:07:09;;;;;;;0.30;0.30;;;;;;;;;;5085406;28;20029;-81
2023/11/13 10:09:36;;;;;;;0.20;0.20;;;;;;;;;;5095075;28;20096;-80
2023/11/13 10:12:07;;;;;;;0.17;0.17;;;;;;;;;;5089675;28;20032;-80
2023/11/13 10:14:35;;;;;;;2.65;0.40;;;;;;;;;;5089985;28;20013;-79
2023/11/13 10:17:01;;;;;;;0.70;0.30;;;;;;;;;;5094801;28;20025;-78
2023/11/13 10:19:28;;;;;;;1.45;0.30;;;;;;;;;;5087883;28;20031;-78
2023/11/13 10:21:56;;;;;;;2.17;0.38;;;;;;;;;;5083674;28;20463;-79
2023/11/13 10:24:24;;;;;;;0.88;0.40;;;;;;;;;;5071079;28;20045;-79
2023/11/13 10:26:55;;;;;;;0.55;0.50;;;;;;;;;;5089727;28;20024;-79
2023/11/13 10:29:30;;;;;;;0.50;0.50;;;;;;;;;;5076322;28;20025;-82
2023/11/13 10:31:56;;;;;;;0.55;0.43;;;;;;;;;;5090777;28;20020;-81
2023/11/13 10:34:23;;;;;;;0.55;0.50;;;;;;;;;;5070221;28;20040;-82
2023/11/13 10:37:11;;;;;;;0.50;0.50;;;;;;;;;;5078528;28;20017;-84
2023/11/13 10:39:40;;;;;;;0.57;0.40;;;;;;;;;;5077938;28;20427;-80
2023/11/13 10:42:16;;;;;;;0.50;0.30;;;;;;;;;;5067284;28;20020;-79
2023/11/13 10:44:45;;;;;;;0.75;0.43;;;;;;;;;;5072072;28;20044;-80
2023/11/13 10:47:27;;;;;;;0.35;0.30;;;;;;;;;;5066296;28;20035;-80
2023/11/13 10:49:55;;;;;;;2.08;0.32;;;;;;;;;;5076934;28;20412;-82
2023/11/13 10:52:25;;;;;;;0.20;0.20;;;;;;;;;;5087651;28;20031;-85
2023/11/13 10:54:52;;;;;;;0.63;0.40;;;;;;;;;;5093475;28;20028;-79
2023/11/13 10:57:20;;;;;;;0.40;0.40;;;;;;;;;;5084574;28;20021;-83
2023/11/13 10:59:46;;;;;;;1.23;0.30;;;;;;;;;;5069082;28;20143;-80
2023/11/13 11:02:26;;;;;;;0.85;0.68;;;;;;;;;;5062091;28;20211;-80
2023/11/13 11:04:53;;;;;;;0.30;0.30;;;;;;;;;;5077706;28;20028;-80
2023/11/13 11:07:23;;;;;;;0.40;0.40;;;;;;;;;;5076231;28;20440;-81
2023/11/13 11:09:51;;;;;;;0.20;0.20;;;;;;;;;;5077910;28;20110;-81
2023/11/13 11:12:18;;;;;;;0.50;0.50;;;;;;;;;;5081641;28;20123;-81
2023/11/13 11:15:08;;;;;;;0.40;0.40;;;;;;;;;;5071582;28;20017;-82
2023/11/13 11:17:36;;;;;;;0.40;0.25;;;;;;;;;;5048624;28;20048;-80
2023/11/13 11:20:07;;;;;;;0.75;0.50;;;;;;;;;;5085527;28;20024;-81
2023/11/13 11:22:46;;;;;;;0.30;0.30;;;;;;;;;;5082084;28;20107;-80
2023/11/13 11:25:22;;;;;;;0.70;0.50;;;;;;;;;;5083794;28;20020;-81
2023/11/13 11:27:48;;;;;;;0.57;0.55;;;;;;;;;;5073550;28;20021;-81
2023/11/13 11:30:22;;;;;;;0.95;0.70;;;;;;;;;;5071943;28;20051;-82
2023/11/13 11:32:58;;;;;;;0.45;0.45;;;;;;;;;;5078094;28;20091;-81
2023/11/13 11:35:28;;;;;;;0.90;0.52;;;;;;;;;;5080297;28;20100;-80
2023/11/13 11:38:14;;;;;;;0.93;0.82;;;;;;;;;;5074285;28;20029;-82
2023/11/13 11:40:40;;;;;;;1.02;0.75;;;;;;;;;;5073986;28;20048;-83
2023/11/13 11:43:10;;;;;;;1.80;0.95;;;;;;;;;;5086206;28;20028;-81
2023/11/13 11:45:38;;;;;;;1.55;0.70;;;;;;;;;;5075663;28;20537;-82
2023/11/13 11:48:07;;;;;;;1.83;1.05;;;;;;;;;;5074753;28;20544;-81
2023/11/13 11:50:33;;;;;;;1.55;0.70;;;;;;;;;;5069489;28;20182;-80
2023/11/13 11:52:59;;;;;;;0.55;0.55;;;;;;;;;;5076844;28;20016;-81
2023/11/13 11:55:26;;;;;;;2.00;0.80;;;;;;;;;;5072884;28;20419;-81
2023/11/13 11:57:53;;;;;;;1.02;0.80;;;;;;;;;;5070740;28;20467;-80
2023/11/13 12:00:20;;;;;;;1.00;0.70;;;;;;;;;;5074021;28;20039;-80
2023/11/13 12:02:47;;;;;;;0.77;0.60;;;;;;;;;;5084329;28;20027;-80
2023/11/13 12:05:16;;;;;;;1.13;0.85;;;;;;;;;;5067141;28;20028;-81
2023/11/13 12:07:42;;;;;;;0.93;0.80;;;;;;;;;;5073001;28;20016;-82
2023/11/13 12:10:09;;;;;;;1.35;0.80;;;;;;;;;;5075615;28;20017;-81
2023/11/13 12:12:36;;;;;;;2.22;0.75;;;;;;;;;;5076995;28;20058;-82
2023/11/13 12:15:04;;;;;;;2.85;0.80;;;;;;;;;;5075773;28;20120;-81
2023/11/13 12:17:31;;;;;;;3.13;1.08;;;;;;;;;;5072110;28;20028;-81
2023/11/13 12:19:58;;;;;;;0.80;0.80;;;;;;;;;;5061647;28;20029;-81
2023/11/13 12:22:25;;;;;;;1.55;0.90;;;;;;;;;;5074582;28;20033;-83
2023/11/13 12:24:51;;;;;;;1.33;0.80;;;;;;;;;;5068908;28;20025;-83
2023/11/13 12:27:17;;;;;;;2.85;1.50;;;;;;;;;;5077057;28;20546;-82
2023/11/13 12:29:43;;;;;;;2.65;1.20;;;;;;;;;;5072263;28;20021;-82
2023/11/13 12:32:10;;;;;;;2.95;1.55;;;;;;;;;;5071066;28;20017;-82
2023/11/13 12:34:39;;;;;;;1.98;1.20;;;;;;;;;;5079342;28;20096;-83
2023/11/13 12:37:06;;;;;;;2.53;1.50;;;;;;;;;;5072828;28;20021;-81
2023/11/13 12:39:32;;;;;;;2.30;1.02;;;;;;;;;;5064031;28;20029;-82
2023/11/13 12:42:00;;;;;;;3.15;1.50;;;;;;;;;;5061812;28;20037;-82
2023/11/13 12:44:26;;;;;;;1.90;0.88;;;;;;;;;;5061192;28;20031;-81
2023/11/13 12:46:56;;;;;;;1.90;1.38;;;;;;;;;;5075710;28;20016;-82
2023/11/13 12:49:24;;;;;;;1.58;1.00;;;;;;;;;;5114285;28;20050;-84
2023/11/13 12:51:50;;;;;;;1.58;1.02;;;;;;;;;;5088405;28;20017;-82
2023/11/13 12:54:16;;;;;;;3.13;1.55;;;;;;;;;;5076445;28;20020;-83
2023/11/13 12:56:47;;;;;;;1.85;1.00;;;;;;;;;;5087843;28;20036;-82
2023/11/13 12:59:16;;;;;;;3.75;1.20;;;;;;;;;;5082954;28;20043;-80
2023/11/13 13:01:48;;;;;;;2.50;1.17;;;;;;;;;;5080193;28;20028;-80
2023/11/13 13:04:15;;;;;;;1.80;1.10;;;;;;;;;;5098237;28;20044;-80
2023/11/13 13:06:43;;;;;;;1.60;1.00;;;;;;;;;;5071781;28;20518;-80
2023/11/13 13:09:11;;;;;;;1.83;0.93;;;;;;;;;;5089949;28;20020;-80
2023/11/13 13:11:43;;;;;;;1.75;0.90;;;;;;;;;;5072401;28;20115;-80
2023/11/13 13:14:09;;;;;;;;;;;;;;;;;;5079470;28;20076;-80
2023/11/13 13:16:39;;;;;;;2.05;1.02;;;;;;;;;;5077213;28;19908;-80
2023/11/13 13:19:05;;;;;;;1.30;0.90;;;;;;;;;;5077516;28;20032;-82
2023/11/13 13:21:31;;;;;;;1.63;0.93;;;;;;;;;;5078954;28;20056;-82
2023/11/13 13:23:58;;;;;;;0.93;0.90;;;;;;;;;;5086985;28;20012;-82
2023/11/13 13:26:24;;;;;;;1.60;0.70;;;;;;;;;;5088631;28;20088;-83
2023/11/13 13:28:53;;;;;;;1.27;0.93;;;;;;;;;;5078702;28;20086;-82
2023/11/13 13:31:24;;;;;;;1.48;1.10;;;;;;;;;;5073132;28;20025;-82
2023/11/13 13:33:51;;;;;;;1.80;1.08;;;;;;;;;;5080365;28;20113;-81
2023/11/13 13:36:19;;;;;;;1.95;0.80;;;;;;;;;;5072562;28;20471;-83
2023/11/13 13:38:46;;;;;;;5.38;1.10;;;;;;;;;;5077963;28;20024;-82
2023/11/13 13:41:16;;;;;;;3.60;1.73;;;;;;;;;;5076657;28;20422;-81
2023/11/13 13:43:42;;;;;;;2.58;0.80;;;;;;;;;;5083794;28;20414;-81
2023/11/13 13:46:11;;;;;;;2.83;1.42;;;;;;;;;;5063481;28;20017;-80
2023/11/13 13:48:40;;;;;;;2.22;1.20;;;;;;;;;;5080366;28;20403;-80
2023/11/13 13:51:07;;;;;;;2.35;0.77;;;;;;;;;;5076196;28;20025;-80
2023/11/13 13:53:34;;;;;;;2.15;1.60;;;;;;;;;;5083754;28;20024;-81
2023/11/13 13:56:02;;;;;;;1.50;0.85;;;;;;;;;;5071475;28;20032;-81
2023/11/13 13:58:28;;;;;;;1.05;0.70;;;;;;;;;;5078205;28;20398;-81
2023/11/13 14:00:54;;;;;;;1.30;0.70;;;;;;;;;;5079485;28;20028;-81
2023/11/13 14:03:23;;;;;;;1.20;0.77;;;;;;;;;;5089523;28;20093;-83
2023/11/13 14:05:49;;;;;;;1.77;0.73;;;;;;;;;;5076277;28;20025;-80
2023/11/13 14:08:19;;;;;;;1.40;1.00;;;;;;;;;;5084603;28;20027;-80
2023/11/13 14:10:48;;;;;;;1.92;1.00;;;;;;;;;;5089221;28;20025;-81
2023/11/13 14:13:14;;;;;;;1.75;0.80;;;;;;;;;;5079571;28;20059;-81
2023/11/13 14:15:43;;;;;;;3.58;1.00;;;;;;;;;;5076419;28;20242;-81
2023/11/13 14:18:16;;;;;;;1.20;0.65;;;;;;;;;;5082865;28;20017;-80
2023/11/13 14:20:47;;;;;;;2.20;1.13;;;;;;;;;;5082807;28;20107;-83
2023/11/13 14:23:20;;;;;;;1.55;1.05;;;;;;;;;;5076214;28;20025;-82
2023/11/13 14:26:09;;;;;;;;;;;;;;;;;;;;;
2023/11/13 14:31:34;;;;;;;0.82;0.60;;;;;;;;;;5051259;28;20093;-81
2023/11/13 14:34:03;;;;;;;2.05;1.20;;;;;;;;;;5079431;28;20024;-83
2023/11/13 14:36:33;;;;;;;3.60;1.05;;;;;;;;;;5087020;28;20035;-82
2023/11/13 14:38:59;;;;;;;1.27;0.77;;;;;;;;;;5079499;28;20036;-82
2023/11/13 14:41:28;;;;;;;3.15;1.55;;;;;;;;;;5070609;28;20025;-82
2023/11/13 14:46:33;;;;;;;2.67;1.10;;;;;;;;;;5072490;28;20033;-81
2023/11/13 14:49:00;;;;;;;1.35;0.90;;;;;;;;;;5077421;28;20115;-81
2023/11/13 14:51:55;;;;;;;;;;;;;;;;;;;;;
2023/11/13 14:54:28;;;;;;;1.88;1.00;;;;;;;;;;5081627;28;20059;-84